createdAt,value
2022-09-06T00:01:31.601Z,66.43
2022-09-06T00:03:58.968Z,66.76
2022-09-06T00:06:25.980Z,66.85
2022-09-06T00:08:52.739Z,66.95
2022-09-06T00:11:19.757Z,66.65
2022-09-06T00:13:47.301Z,66.79
2022-09-06T00:16:17.902Z,66.41
2022-09-06T00:18:45.011Z,66.67
2022-09-06T00:21:20.282Z,66.23
2022-09-06T00:23:47.259Z,66.47
2022-09-06T00:26:14.261Z,66.56
2022-09-06T00:28:41.271Z,66.70
2022-09-06T00:31:16.759Z,66.88
2022-09-06T00:33:43.760Z,66.90
2022-09-06T00:36:10.993Z,66.79
2022-09-06T00:38:38.055Z,66.67
2022-09-06T00:41:05.800Z,67.19
2022-09-06T00:43:33.033Z,66.84
2022-09-06T00:46:00.096Z,67.07
2022-09-06T00:48:27.179Z,66.71
2022-09-06T00:50:56.313Z,66.83
2022-09-06T00:53:23.171Z,66.98
2022-09-06T00:55:50.140Z,67.25
2022-09-06T00:58:17.196Z,66.95
2022-09-06T01:00:45.029Z,67.15
2022-09-06T01:03:12.177Z,67.05
2022-09-06T01:06:20.185Z,67.21
2022-09-06T01:09:08.796Z,67.06
2022-09-06T01:12:06.031Z,67.23
2022-09-06T01:15:11.522Z,66.93
2022-09-06T01:17:43.937Z,67.08
2022-09-06T01:20:17.858Z,67.21
2022-09-06T01:23:04.771Z,67.23
2022-09-06T01:25:56.201Z,67.14
2022-09-06T01:28:26.171Z,67.31
2022-09-06T01:31:05.284Z,67.14
2022-09-06T01:33:33.980Z,67.22
2022-09-06T01:36:02.668Z,67.27
2022-09-06T01:38:29.396Z,67.34
2022-09-06T01:40:56.168Z,67.22
2022-09-06T01:43:33.606Z,67.37
2022-09-06T01:46:33.084Z,67.58
2022-09-06T01:49:18.230Z,67.52
2022-09-06T01:52:09.347Z,67.58
2022-09-06T01:54:55.329Z,67.92
2022-09-06T01:57:34.309Z,67.55
2022-09-06T02:00:09.373Z,67.80
2022-09-06T02:02:48.158Z,67.57
2022-09-06T02:05:22.955Z,67.56
2022-09-06T02:07:49.820Z,67.78
2022-09-06T02:10:24.399Z,67.88
2022-09-06T02:12:52.652Z,68.26
2022-09-06T02:15:33.108Z,67.90
2022-09-06T02:18:03.845Z,68.02
2022-09-06T02:20:31.776Z,68.06
2022-09-06T02:23:01.914Z,67.98
2022-09-06T02:25:32.896Z,68.01
2022-09-06T02:27:59.847Z,68.01
2022-09-06T02:30:26.741Z,68.04
2022-09-06T02:32:58.883Z,67.87
2022-09-06T02:35:25.796Z,67.75
2022-09-06T02:37:52.560Z,67.85
2022-09-06T02:40:19.323Z,67.79
2022-09-06T02:42:46.216Z,67.88
2022-09-06T02:45:13.155Z,67.80
2022-09-06T02:47:40.190Z,67.80
2022-09-06T02:50:08.295Z,67.86
2022-09-06T02:52:35.021Z,67.86
2022-09-06T02:55:01.817Z,67.71
2022-09-06T02:57:28.613Z,67.76
2022-09-06T02:59:55.443Z,67.73
2022-09-06T03:02:22.213Z,67.53
2022-09-06T03:04:49.081Z,67.58
2022-09-06T03:07:15.900Z,67.62
2022-09-06T03:09:42.777Z,67.60
2022-09-06T03:12:09.622Z,67.68
2022-09-06T03:14:36.319Z,67.67
2022-09-06T03:17:03.957Z,67.58
2022-09-06T03:19:30.881Z,67.51
2022-09-06T03:21:57.633Z,67.29
2022-09-06T03:24:24.520Z,67.38
2022-09-06T03:26:52.035Z,67.11
2022-09-06T03:29:18.866Z,67.11
2022-09-06T03:31:45.601Z,67.32
2022-09-06T03:34:12.427Z,67.24
2022-09-06T03:36:39.278Z,67.42
2022-09-06T03:39:07.169Z,67.61
2022-09-06T03:41:34.060Z,67.73
2022-09-06T03:44:00.915Z,67.82
2022-09-06T03:46:30.540Z,68.09
2022-09-06T03:48:58.208Z,68.24
2022-09-06T03:51:25.095Z,68.23
2022-09-06T03:53:51.845Z,68.13
2022-09-06T03:56:18.686Z,68.23
2022-09-06T03:58:45.530Z,68.44
2022-09-06T04:01:12.797Z,68.45
2022-09-06T04:03:39.783Z,68.76
2022-09-06T04:06:06.826Z,68.86
2022-09-06T04:08:33.901Z,68.66
2022-09-06T04:11:00.705Z,68.99
2022-09-06T04:13:28.256Z,69.05
2022-09-06T04:15:55.242Z,69.01
2022-09-06T04:18:22.492Z,69.11
2022-09-06T04:20:50.062Z,69.26
2022-09-06T04:23:17.593Z,69.50
2022-09-06T04:25:51.988Z,69.84
2022-09-06T04:28:18.958Z,70.37
2022-09-06T04:30:51.661Z,70.46
2022-09-06T04:33:18.515Z,70.69
2022-09-06T04:35:55.431Z,70.62
2022-09-06T04:38:22.870Z,70.67
2022-09-06T04:40:49.853Z,70.31
2022-09-06T04:43:16.945Z,70.00
2022-09-06T04:45:44.056Z,69.75
2022-09-06T04:48:11.580Z,68.99
2022-09-06T04:50:38.499Z,67.21
2022-09-06T04:53:05.548Z,64.63
2022-09-06T04:55:34.253Z,62.10
2022-09-06T04:58:01.301Z,59.14
2022-09-06T05:00:28.584Z,56.43
2022-09-06T05:02:55.615Z,54.16
2022-09-06T05:05:22.682Z,52.25
2022-09-06T05:07:53.449Z,50.84
2022-09-06T05:13:19.110Z,49.40
2022-09-06T05:15:45.994Z,48.83
2022-09-06T05:18:16.174Z,48.38
2022-09-06T05:20:43.363Z,47.63
2022-09-06T05:23:10.300Z,46.75
2022-09-06T05:25:37.156Z,45.67
2022-09-06T05:28:04.099Z,44.50
2022-09-06T05:30:31.059Z,43.69
2022-09-06T05:32:57.908Z,43.09
2022-09-06T05:35:24.851Z,42.55
2022-09-06T05:37:51.613Z,42.14
2022-09-06T05:40:18.495Z,42.06
2022-09-06T05:42:45.302Z,42.04
2022-09-06T05:45:12.298Z,41.97
2022-09-06T05:47:39.193Z,41.26
2022-09-06T05:50:07.225Z,41.46
2022-09-06T05:52:35.313Z,41.41
2022-09-06T05:55:02.791Z,41.67
2022-09-06T05:57:29.731Z,40.75
2022-09-06T05:59:56.868Z,40.56
2022-09-06T06:02:23.881Z,41.14
2022-09-06T06:04:52.068Z,41.25
2022-09-06T06:07:18.936Z,40.69
2022-09-06T06:09:45.700Z,39.15
2022-09-06T06:12:15.339Z,38.85
2022-09-06T06:14:44.465Z,37.68
2022-09-06T06:17:11.252Z,36.48
2022-09-06T06:19:40.005Z,36.18
2022-09-06T06:22:07.059Z,35.46
2022-09-06T06:24:33.860Z,34.86
2022-09-06T06:27:00.783Z,34.16
2022-09-06T06:29:27.828Z,34.04
2022-09-06T06:31:54.749Z,33.16
2022-09-06T06:34:22.167Z,32.33
2022-09-06T06:36:49.281Z,32.54
2022-09-06T06:39:16.373Z,32.73
2022-09-06T06:41:43.617Z,33.28
2022-09-06T06:44:31.615Z,33.88
2022-09-06T06:58:04.069Z,34.75
2022-09-06T07:00:38.360Z,35.06
2022-09-06T07:03:05.605Z,35.35
2022-09-06T07:08:20.946Z,34.92
2022-09-06T07:10:47.726Z,35.41
2022-09-06T07:13:14.518Z,35.96
2022-09-06T07:15:41.216Z,35.66
2022-09-06T07:18:08.247Z,35.74
2022-09-06T07:26:19.508Z,35.79
2022-09-06T07:28:49.194Z,35.58
2022-09-06T07:34:05.173Z,34.94
2022-09-06T07:36:32.016Z,34.82
2022-09-06T07:38:58.897Z,35.07
2022-09-06T07:41:25.722Z,34.91
2022-09-06T07:43:54.493Z,34.77
2022-09-06T07:46:22.170Z,34.78
2022-09-06T07:48:49.849Z,34.51
2022-09-06T07:51:20.713Z,34.29
2022-09-06T07:53:57.868Z,34.25
2022-09-06T07:56:30.212Z,33.97
2022-09-06T07:58:57.592Z,33.85
2022-09-06T08:01:30.480Z,33.87
2022-09-06T08:03:58.627Z,33.87
2022-09-06T08:06:26.459Z,33.47
2022-09-06T08:11:24.688Z,33.24
2022-09-06T08:13:52.670Z,32.94
2022-09-06T08:16:20.194Z,32.73
2022-09-06T08:18:57.695Z,32.85
2022-09-06T08:21:25.463Z,33.29
2022-09-06T08:23:54.884Z,33.44
2022-09-06T08:26:22.543Z,33.60
2022-09-06T08:28:54.713Z,33.01
2022-09-06T08:31:21.751Z,33.25
2022-09-06T08:33:48.690Z,33.73
2022-09-06T08:36:15.662Z,33.62
2022-09-06T08:38:42.513Z,33.47
2022-09-06T08:41:46.569Z,33.25
2022-09-06T08:47:08.189Z,33.30
2022-09-06T08:49:45.072Z,33.84
2022-09-06T08:53:13.077Z,33.33
2022-09-06T08:55:41.815Z,33.39
2022-09-06T08:58:49.354Z,33.46
2022-09-06T09:01:19.297Z,33.48
2022-09-06T09:03:46.211Z,33.67
2022-09-06T09:06:13.015Z,33.83
2022-09-06T09:09:03.136Z,33.73
2022-09-06T09:11:30.236Z,33.72
2022-09-06T09:13:59.415Z,33.48
2022-09-06T09:16:26.415Z,32.72
2022-09-06T09:18:55.337Z,31.93
2022-09-06T09:21:28.084Z,31.50
2022-09-06T09:23:58.998Z,31.44
2022-09-06T09:26:26.988Z,31.13
2022-09-06T09:29:08.993Z,30.73
2022-09-06T09:31:43.332Z,31.00
2022-09-06T09:34:14.876Z,31.52
2022-09-06T09:39:34.830Z,31.72
2022-09-06T09:42:01.606Z,31.78
2022-09-06T09:44:29.975Z,31.95
2022-09-06T09:46:56.809Z,32.16
2022-09-06T09:49:26.498Z,31.54
2022-09-06T09:52:07.719Z,31.60
2022-09-06T09:54:39.228Z,32.30
2022-09-06T10:01:19.046Z,32.28
2022-09-06T10:09:29.805Z,32.77
2022-09-06T10:11:58.038Z,32.92
2022-09-06T10:14:40.248Z,32.83
2022-09-06T10:17:07.084Z,32.83
2022-09-06T10:19:42.009Z,33.20
2022-09-06T10:22:20.201Z,33.45
2022-09-06T10:24:54.272Z,33.32
2022-09-06T10:27:25.916Z,33.47
2022-09-06T10:30:10.892Z,33.71
2022-09-06T10:32:37.724Z,33.81
2022-09-06T10:35:24.047Z,34.24
2022-09-06T10:38:10.530Z,34.49
2022-09-06T10:40:41.520Z,34.02
2022-09-06T10:43:09.071Z,33.58
2022-09-06T10:45:35.813Z,33.50
2022-09-06T10:48:16.729Z,33.35
2022-09-06T10:50:58.946Z,33.36
2022-09-06T10:53:43.825Z,33.81
2022-09-06T10:56:19.009Z,33.92
2022-09-06T11:01:39.958Z,32.85
2022-09-06T11:04:12.854Z,32.69
2022-09-06T11:06:45.327Z,32.88
2022-09-06T11:09:19.438Z,33.06
2022-09-06T11:11:53.467Z,32.40
2022-09-06T11:14:20.305Z,32.12
2022-09-06T11:16:57.799Z,31.62
2022-09-06T11:19:40.512Z,31.92
2022-09-06T11:22:42.738Z,31.61
2022-09-06T11:25:30.960Z,31.16
2022-09-06T11:27:58.343Z,31.27
2022-09-06T11:30:27.136Z,31.49
2022-09-06T11:33:18.194Z,31.62
2022-09-06T11:36:34.460Z,31.81
2022-09-06T11:39:02.382Z,32.10
2022-09-06T11:41:31.724Z,32.12
2022-09-06T11:44:01.145Z,32.34
2022-09-06T11:46:35.382Z,32.60
2022-09-06T11:49:10.961Z,32.30
2022-09-06T11:51:39.402Z,32.43
2022-09-06T11:54:27.108Z,32.57
2022-09-06T11:57:02.892Z,32.54
2022-09-06T12:00:01.022Z,32.40
2022-09-06T12:02:32.378Z,32.92
2022-09-06T12:05:00.377Z,33.21
2022-09-06T12:07:31.229Z,33.22
2022-09-06T12:10:01.619Z,33.31
2022-09-06T12:12:48.645Z,33.76
2022-09-06T12:15:45.593Z,34.12
2022-09-06T12:18:47.407Z,34.20
2022-09-06T12:21:32.627Z,34.34
2022-09-06T12:23:59.708Z,34.49
2022-09-06T12:26:55.577Z,34.48
2022-09-06T12:29:26.291Z,35.35
2022-09-06T12:32:02.292Z,34.83
2022-09-06T12:34:30.664Z,34.72
2022-09-06T12:37:17.184Z,34.41
2022-09-06T12:40:19.016Z,34.53
2022-09-06T12:42:47.310Z,34.17
2022-09-06T12:45:14.123Z,34.21
2022-09-06T12:47:41.549Z,34.45
2022-09-06T12:50:26.293Z,34.40
2022-09-06T12:52:59.283Z,34.08
2022-09-06T12:55:28.437Z,33.74
2022-09-06T12:57:56.933Z,33.69
2022-09-06T13:00:25.152Z,33.37
2022-09-06T13:03:02.242Z,33.38
2022-09-06T13:05:29.179Z,33.35
2022-09-06T13:07:58.201Z,33.08
2022-09-06T13:10:26.280Z,32.30
2022-09-06T13:12:53.507Z,32.92
2022-09-06T13:15:28.321Z,32.94
2022-09-06T13:17:55.802Z,32.56
2022-09-06T13:20:27.877Z,32.64
2022-09-06T13:23:09.801Z,32.55
2022-09-06T13:25:47.243Z,32.42
2022-09-06T13:28:26.865Z,32.24
2022-09-06T13:31:18.268Z,32.24
2022-09-06T13:33:46.417Z,32.04
2022-09-06T13:36:13.324Z,31.90
2022-09-06T13:38:45.642Z,31.98
2022-09-06T13:41:25.014Z,32.09
2022-09-06T13:44:03.245Z,32.38
2022-09-06T13:46:30.923Z,32.81
2022-09-06T13:48:59.798Z,32.89
2022-09-06T13:51:28.195Z,32.98
2022-09-06T13:54:11.937Z,33.08
2022-09-06T13:56:39.376Z,33.06
2022-09-06T13:59:06.385Z,33.09
2022-09-06T14:01:33.799Z,33.18
2022-09-06T14:04:00.783Z,33.25
2022-09-06T14:06:28.074Z,33.44
2022-09-06T14:09:10.262Z,33.30
2022-09-06T14:11:38.316Z,33.37
2022-09-06T14:14:05.469Z,33.48
2022-09-06T14:16:33.268Z,33.41
2022-09-06T14:19:00.036Z,33.42
2022-09-06T14:21:26.919Z,33.67
2022-09-06T14:23:53.797Z,33.79
2022-09-06T14:26:21.408Z,33.81
2022-09-06T14:28:48.535Z,34.10
2022-09-06T14:31:16.317Z,34.06
2022-09-06T14:33:43.258Z,33.99
2022-09-06T14:36:11.652Z,33.92
2022-09-06T14:38:39.039Z,33.83
2022-09-06T14:41:06.278Z,34.02
2022-09-06T14:43:33.053Z,34.09
2022-09-06T14:46:06.925Z,34.23
2022-09-06T14:48:33.809Z,34.28
2022-09-06T14:51:08.032Z,34.49
2022-09-06T14:53:40.633Z,34.78
2022-09-06T14:56:08.560Z,34.81
2022-09-06T14:58:37.445Z,35.00
2022-09-06T15:01:13.002Z,35.21
2022-09-06T15:03:46.476Z,35.63
2022-09-06T15:06:13.100Z,35.73
2022-09-06T15:08:39.868Z,35.88
2022-09-06T15:11:08.098Z,36.16
2022-09-06T15:13:37.188Z,36.27
2022-09-06T15:16:05.108Z,36.46
2022-09-06T15:18:32.045Z,36.67
2022-09-06T15:21:08.278Z,36.58
2022-09-06T15:23:35.135Z,36.61
2022-09-06T15:26:01.865Z,36.72
2022-09-06T15:28:28.631Z,36.67
2022-09-06T15:30:55.902Z,36.82
2022-09-06T15:33:22.922Z,36.90
2022-09-06T15:35:58.600Z,36.83
2022-09-06T15:38:25.471Z,37.04
2022-09-06T15:40:52.348Z,37.18
2022-09-06T15:43:19.156Z,37.18
2022-09-06T15:45:50.664Z,37.15
2022-09-06T15:48:17.684Z,37.41
2022-09-06T15:50:51.756Z,37.53
2022-09-06T15:53:19.456Z,37.74
2022-09-06T15:55:58.269Z,37.70
2022-09-06T15:58:26.207Z,38.28
2022-09-06T16:01:03.536Z,38.18
2022-09-06T16:03:30.553Z,38.66
2022-09-06T16:08:55.574Z,38.90
2022-09-06T16:11:22.317Z,39.15
2022-09-06T16:13:49.532Z,39.39
2022-09-06T16:16:16.664Z,39.84
2022-09-06T16:18:44.436Z,40.07
2022-09-06T16:21:12.256Z,40.20
2022-09-06T16:23:39.700Z,40.48
2022-09-06T16:26:07.005Z,40.74
2022-09-06T16:28:34.862Z,41.05
2022-09-06T16:31:02.769Z,41.40
2022-09-06T16:33:29.734Z,41.81
2022-09-06T16:35:59.261Z,43.15
2022-09-06T16:38:31.941Z,44.35
2022-09-06T16:40:59.430Z,45.32
2022-09-06T16:43:26.812Z,45.71
2022-09-06T16:46:00.788Z,45.93
2022-09-06T16:48:27.746Z,46.27
2022-09-06T16:50:54.594Z,46.75
2022-09-06T16:53:22.183Z,47.18
2022-09-06T16:55:50.195Z,47.58
2022-09-06T16:58:17.003Z,47.99
2022-09-06T17:00:47.442Z,48.64
2022-09-06T17:03:14.384Z,48.86
2022-09-06T17:05:41.223Z,49.17
2022-09-06T17:08:08.404Z,49.67
2022-09-06T17:10:38.424Z,50.08
2022-09-06T17:13:05.246Z,50.51
2022-09-06T17:15:51.899Z,50.88
2022-09-06T17:18:18.688Z,51.21
2022-09-06T17:20:58.641Z,51.53
2022-09-06T17:23:25.459Z,51.80
2022-09-06T17:25:52.269Z,52.04
2022-09-06T17:31:01.049Z,52.68
2022-09-06T17:33:27.958Z,52.97
2022-09-06T17:35:54.699Z,53.18
2022-09-06T17:38:21.757Z,53.26
2022-09-06T17:40:57.935Z,53.54
2022-09-06T17:43:26.549Z,53.75
2022-09-06T17:45:53.318Z,54.11
2022-09-06T17:48:20.105Z,54.48
2022-09-06T17:50:47.194Z,54.81
2022-09-06T17:53:14.136Z,55.09
2022-09-06T17:55:41.342Z,55.29
2022-09-06T17:58:08.479Z,55.41
2022-09-06T18:00:40.689Z,55.28
2022-09-06T18:03:08.501Z,55.75
2022-09-06T18:05:39.358Z,55.66
2022-09-06T18:08:08.690Z,55.74
2022-09-06T18:10:36.883Z,55.85
2022-09-06T18:13:04.728Z,55.80
2022-09-06T18:15:31.900Z,55.31
2022-09-06T18:17:58.603Z,54.75
2022-09-06T18:20:26.582Z,54.79
2022-09-06T18:22:53.308Z,55.20
2022-09-06T18:25:19.983Z,55.42
2022-09-06T18:27:47.165Z,55.65
2022-09-06T18:30:15.013Z,55.77
2022-09-06T18:32:41.989Z,55.88
2022-09-06T18:35:08.985Z,56.13
2022-09-06T18:37:36.676Z,56.22
2022-09-06T18:40:04.553Z,56.16
2022-09-06T18:42:32.101Z,56.19
2022-09-06T18:44:58.799Z,56.08
2022-09-06T18:47:25.507Z,56.06
2022-09-06T18:49:52.211Z,56.19
2022-09-06T18:52:20.534Z,56.13
2022-09-06T18:54:49.022Z,56.31
2022-09-06T18:57:16.506Z,56.89
2022-09-06T18:59:43.406Z,57.16
2022-09-06T19:02:10.189Z,57.39
2022-09-06T19:04:37.040Z,57.58
2022-09-06T19:07:04.078Z,58.13
2022-09-06T19:09:30.864Z,58.22
2022-09-06T19:11:57.623Z,58.08
2022-09-06T19:14:24.321Z,58.13
2022-09-06T19:16:53.929Z,58.27
2022-09-06T19:19:21.826Z,58.33
2022-09-06T19:21:48.547Z,58.27
2022-09-06T19:24:16.120Z,58.43
2022-09-06T19:26:43.516Z,58.40
2022-09-06T19:29:17.738Z,58.18
2022-09-06T19:31:44.641Z,58.11
2022-09-06T19:34:13.512Z,58.40
2022-09-06T19:36:40.410Z,58.49
2022-09-06T19:39:08.351Z,58.26
2022-09-06T19:41:39.143Z,58.54
2022-09-06T19:44:07.766Z,58.61
2022-09-06T19:46:35.236Z,58.68
2022-09-06T19:49:02.377Z,58.66
2022-09-06T19:51:29.292Z,58.99
2022-09-06T19:54:00.075Z,58.81
2022-09-06T19:56:31.720Z,58.86
2022-09-06T19:58:59.632Z,58.87
2022-09-06T20:01:29.403Z,59.41
2022-09-06T20:03:56.586Z,59.35
2022-09-06T20:06:23.348Z,59.71
2022-09-06T20:08:54.384Z,60.11
2022-09-06T20:11:22.112Z,59.97
2022-09-06T20:13:49.009Z,60.47
2022-09-06T20:16:16.175Z,60.72
2022-09-06T20:18:43.350Z,60.59
2022-09-06T20:21:10.923Z,60.58
2022-09-06T20:23:37.608Z,60.68
2022-09-06T20:26:09.728Z,60.76
2022-09-06T20:28:37.156Z,60.84
2022-09-06T20:31:06.432Z,61.28
2022-09-06T20:33:33.471Z,61.26
2022-09-06T20:36:04.076Z,61.22
2022-09-06T20:38:31.601Z,61.35
2022-09-06T20:40:59.864Z,61.19
2022-09-06T20:43:26.724Z,61.24
2022-09-06T20:45:53.477Z,61.07
2022-09-06T20:48:20.155Z,61.16
2022-09-06T20:50:47.136Z,60.95
2022-09-06T20:53:13.793Z,61.39
2022-09-06T20:55:40.509Z,60.80
2022-09-06T20:58:07.207Z,61.39
2022-09-06T21:00:34.040Z,61.56
2022-09-06T21:03:00.760Z,61.37
2022-09-06T21:05:29.256Z,61.72
2022-09-06T21:07:57.426Z,61.66
2022-09-06T21:10:24.527Z,61.72
2022-09-06T21:12:51.257Z,61.83
2022-09-06T21:15:17.930Z,61.73
2022-09-06T21:17:44.713Z,61.85
2022-09-06T21:20:11.767Z,61.45
2022-09-06T21:22:38.488Z,61.44
2022-09-06T21:25:05.605Z,61.54
2022-09-06T21:27:32.462Z,61.64
2022-09-06T21:29:59.172Z,61.57
2022-09-06T21:32:28.186Z,61.68
2022-09-06T21:34:55.180Z,61.71
2022-09-06T21:37:21.958Z,61.92
2022-09-06T21:39:49.244Z,61.88
2022-09-06T21:42:16.067Z,62.02
2022-09-06T21:44:42.925Z,62.12
2022-09-06T21:47:09.733Z,62.44
2022-09-06T21:49:36.631Z,62.32
2022-09-06T21:52:03.676Z,62.16
2022-09-06T21:54:31.162Z,62.27
2022-09-06T21:56:57.972Z,62.41
2022-09-06T21:59:24.678Z,62.50
2022-09-06T22:01:52.863Z,62.85
2022-09-06T22:04:19.780Z,62.80
2022-09-06T22:06:47.627Z,62.56
2022-09-06T22:09:14.383Z,62.63
2022-09-06T22:11:43.517Z,62.73
2022-09-06T22:14:12.227Z,62.67
2022-09-06T22:16:39.760Z,62.83
2022-09-06T22:19:07.257Z,62.74
2022-09-06T22:21:34.178Z,62.61
2022-09-06T22:24:02.795Z,62.91
2022-09-06T22:26:30.453Z,62.99
2022-09-06T22:28:58.849Z,62.97
2022-09-06T22:31:26.838Z,62.81
2022-09-06T22:33:53.892Z,62.77
2022-09-06T22:36:21.211Z,62.74
2022-09-06T22:38:48.149Z,62.67
2022-09-06T22:41:15.464Z,62.83
2022-09-06T22:43:42.831Z,62.61
2022-09-06T22:46:10.292Z,62.92
2022-09-06T22:48:39.604Z,62.76
2022-09-06T22:51:06.620Z,62.89
2022-09-06T22:53:33.486Z,62.82
2022-09-06T22:56:01.401Z,62.72
2022-09-06T22:58:29.046Z,62.96
2022-09-06T23:00:56.757Z,62.91
2022-09-06T23:03:23.999Z,62.99
2022-09-06T23:05:51.033Z,63.22
2022-09-06T23:08:18.261Z,63.23
2022-09-06T23:10:45.157Z,63.16
2022-09-06T23:13:12.456Z,63.22
2022-09-06T23:15:40.869Z,63.21
2022-09-06T23:18:08.483Z,63.39
2022-09-06T23:20:36.964Z,63.40
2022-09-06T23:23:07.087Z,63.31
2022-09-06T23:25:38.826Z,63.31
2022-09-06T23:28:06.048Z,63.41
2022-09-06T23:30:32.992Z,63.56
2022-09-06T23:32:59.832Z,63.70
2022-09-06T23:35:26.603Z,63.70
2022-09-06T23:37:53.900Z,63.92
2022-09-06T23:40:20.763Z,63.81
2022-09-06T23:42:47.575Z,63.82
2022-09-06T23:45:14.449Z,63.87
2022-09-06T23:47:41.721Z,63.75
2022-09-06T23:50:09.385Z,63.77
2022-09-06T23:52:36.565Z,63.85
2022-09-06T23:55:04.085Z,63.85
2022-09-06T23:57:30.949Z,63.97
2022-09-06T23:59:57.729Z,63.97
